Time;durP1;ratioP1;P1;durP2;ratioP2;P2;SDS_P1;SDS_P2;PMS_P1;PMS_P2;Temp;Humidity;BMP_temperature;BMP_pressure;BME280_temperature;BME280_humidity;BME280_pressure;Samples;Min_cycle;Max_cycle;Signal;HPM_P1;HPM_P2
2022/04/28 03:49:14;;;;;;;13.40;4.88;;;9.60;91.00;;;;;;5012405;28;20076;-86
2022/04/28 03:51:59;;;;;;;;;;;;;;;;;;;;;
2022/04/28 03:54:41;;;;;;;;;;;;;;;;;;;;;
2022/04/28 03:57:07;;;;;;;11.52;4.50;;;9.60;91.30;;;;;;5014613;28;20025;-86
2022/04/28 03:59:39;;;;;;;10.57;5.10;;;9.50;91.40;;;;;;4997249;28;20426;-87
2022/04/28 04:02:37;;;;;;;11.90;4.18;;;9.50;91.50;;;;;;4997506;28;20057;-87
2022/04/28 04:05:32;;;;;;;19.42;4.63;;;9.50;91.60;;;;;;4983070;28;20141;-87
2022/04/28 04:08:07;;;;;;;;;;;;;;;;;;;;;
2022/04/28 04:10:43;;;;;;;11.65;4.70;;;9.50;91.70;;;;;;5015412;28;20055;-87
2022/04/28 04:13:47;;;;;;;14.35;4.65;;;9.40;91.70;;;;;;4956640;28;20054;-87
2022/04/28 04:16:33;;;;;;;;;;;9.40;91.90;;;;;;4982213;28;20470;-87
2022/04/28 04:19:13;;;;;;;12.38;4.72;;;9.40;92.00;;;;;;4998562;28;20320;-85
2022/04/28 04:21:53;;;;;;;8.52;4.65;;;9.40;92.00;;;;;;4985315;28;20045;-87
2022/04/28 04:24:27;;;;;;;12.30;4.60;;;9.30;92.20;;;;;;4969296;28;20466;-85
2022/04/28 04:27:29;;;;;;;;;;;;;;;;;;;;;
2022/04/28 04:33:31;;;;;;;14.85;5.15;;;9.30;92.50;;;;;;5016083;28;20409;-86
2022/04/28 04:36:35;;;;;;;12.50;5.90;;;9.30;92.60;;;;;;4986444;28;20038;-86
2022/04/28 04:39:14;;;;;;;12.93;5.03;;;9.30;92.60;;;;;;4983772;28;20046;-86
2022/04/28 04:42:22;;;;;;;12.60;5.13;;;9.20;92.70;;;;;;4999838;28;20029;-86
2022/04/28 04:45:15;;;;;;;14.18;5.20;;;9.20;92.80;;;;;;4999224;28;20179;-86
2022/04/28 04:48:07;;;;;;;11.45;5.10;;;9.20;92.90;;;;;;4985758;28;20054;-85
2022/04/28 04:50:41;;;;;;;12.80;4.88;;;9.20;93.00;;;;;;4985873;28;20116;-85
2022/04/28 04:53:33;;;;;;;13.70;4.93;;;9.20;93.20;;;;;;5000041;28;20057;-86
2022/04/28 04:56:06;;;;;;;;;;;9.20;93.30;;;;;;4987209;28;20030;-86
2022/04/28 04:58:45;;;;;;;12.88;4.90;;;9.20;93.50;;;;;;4983832;28;19960;-86
2022/04/28 05:01:25;;;;;;;;;;;;;;;;;;;;;
2022/04/28 05:07:32;;;;;;;;;;;;;;;;;;;;;
2022/04/28 05:10:18;;;;;;;13.07;4.88;;;9.10;94.00;;;;;;5001661;28;20040;-86
2022/04/28 05:13:12;;;;;;;;;;;;;;;;;;;;;
2022/04/28 05:16:10;;;;;;;;;;;;;;;;;;;;;
2022/04/28 05:18:52;;;;;;;11.48;4.90;;;9.10;94.50;;;;;;4990349;28;20040;-87
2022/04/28 05:21:39;;;;;;;14.23;4.50;;;9.10;94.70;;;;;;5006951;28;20052;-87
2022/04/28 05:24:18;;;;;;;;;;;;;;;;;;;;;
2022/04/28 05:26:52;;;;;;;14.20;4.82;;;9.20;95.00;;;;;;5017630;28;20032;-86
2022/04/28 05:29:46;;;;;;;11.90;4.45;;;9.20;95.10;;;;;;4998891;28;20108;-85
2022/04/28 05:32:47;;;;;;;10.18;5.13;;;9.20;95.20;;;;;;4992512;28;20486;-85
2022/04/28 05:38:26;;;;;;;10.38;4.57;;;9.20;95.50;;;;;;5037203;28;20068;-86
2022/04/28 05:41:04;;;;;;;11.52;4.85;;;9.20;95.60;;;;;;5003816;28;20010;-87
2022/04/28 05:46:25;;;;;;;12.40;4.68;;;9.20;95.80;;;;;;5034886;28;20068;-85
2022/04/28 05:49:01;;;;;;;14.20;5.00;;;9.20;95.80;;;;;;4995297;28;20058;-86
2022/04/28 05:51:37;;;;;;;10.80;4.80;;;9.30;95.70;;;;;;5020017;28;20096;-86
2022/04/28 05:54:03;;;;;;;10.50;4.30;;;9.30;95.70;;;;;;5006388;28;20196;-85
2022/04/28 05:56:41;;;;;;;;;;;;;;;;;;;;;
2022/04/28 06:02:24;;;;;;;;;;;;;;;;;;;;;
2022/04/28 06:08:09;;;;;;;11.43;5.15;;;9.30;95.50;;;;;;5016210;28;20112;-86
2022/04/28 06:11:20;;;;;;;11.65;4.20;;;9.40;95.50;;;;;;4990386;28;20030;-87
2022/04/28 06:17:08;;;;;;;12.93;4.25;;;9.40;95.60;;;;;;5033259;28;20028;-84
2022/04/28 06:36:34;;;;;;;;;;;;;;;;;;;;;
2022/04/28 06:42:00;;;;;;;7.22;3.13;;;9.70;96.20;;;;;;5013703;28;20092;-86
2022/04/28 06:45:37;;;;;;;10.43;3.70;;;9.80;96.30;;;;;;5000522;28;20026;-86
2022/04/28 06:48:07;;;;;;;9.65;3.80;;;9.80;96.10;;;;;;5017334;28;20046;-86
2022/04/28 06:50:46;;;;;;;10.80;4.18;;;9.90;96.20;;;;;;4981967;28;20046;-86
2022/04/28 06:53:16;;;;;;;9.43;3.53;;;9.90;96.30;;;;;;4982599;28;20394;-86
2022/04/28 06:56:09;;;;;;;11.93;3.88;;;10.00;96.40;;;;;;4997639;28;20026;-86
2022/04/28 07:02:05;;;;;;;;;;;10.10;96.50;;;;;;4996400;28;20026;-85
2022/04/28 07:05:38;;;;;;;7.70;3.05;;;10.20;96.50;;;;;;4997111;28;20331;-86
2022/04/28 07:08:07;;;;;;;7.75;3.28;;;10.20;96.50;;;;;;5002444;28;20034;-86
2022/04/28 07:10:40;;;;;;;10.68;3.38;;;10.30;96.60;;;;;;4998820;28;20022;-87
2022/04/28 07:13:14;;;;;;;9.95;3.35;;;10.40;96.60;;;;;;4982239;28;20037;-84
2022/04/28 07:22:37;;;;;;;;;;;;;;;;;;;;;
2022/04/28 07:25:42;;;;;;;;;;;;;;;;;;;;;
2022/04/28 07:28:21;;;;;;;8.02;2.75;;;10.80;96.40;;;;;;5001301;28;20026;-86
2022/04/28 07:31:12;;;;;;;10.30;2.75;;;10.90;96.30;;;;;;4981537;28;20109;-87
2022/04/28 07:34:09;;;;;;;13.15;3.30;;;11.00;96.40;;;;;;4990680;28;20089;-89
2022/04/28 07:44:12;;;;;;;;;;;;;;;;;;;;;
2022/04/28 07:47:07;;;;;;;5.45;2.25;;;11.40;95.90;;;;;;5000960;28;20569;-87
2022/04/28 07:53:03;;;;;;;;;;;;;;;;;;;;;
2022/04/28 07:59:08;;;;;;;;;;;;;;;;;;;;;
2022/04/28 08:02:17;;;;;;;;;;;;;;;;;;;;;
2022/04/28 08:08:38;;;;;;;;;;;;;;;;;;;;;
2022/04/28 08:24:36;;;;;;;;;;;;;;;;;;;;;
2022/04/28 08:27:03;;;;;;;8.45;2.85;;;12.90;93.50;;;;;;4956850;29;20035;-81
2022/04/28 08:29:38;;;;;;;7.90;3.38;;;13.00;93.40;;;;;;4956974;29;20066;-85
2022/04/28 08:32:09;;;;;;;11.00;3.45;;;13.10;93.00;;;;;;4991388;28;20042;-85
2022/04/28 08:37:21;;;;;;;9.25;3.38;;;13.30;92.60;;;;;;5018149;28;20389;-85
2022/04/28 08:51:21;;;;;;;9.77;3.30;;;13.70;92.40;;;;;;5008088;28;20116;-88
2022/04/28 08:58:13;;;;;;;;;;;;;;;;;;;;;
2022/04/28 09:00:30;;;;;;;10.45;3.40;;;14.00;92.20;;;;;;5010246;28;20030;-86
2022/04/28 09:03:01;;;;;;;10.30;4.28;;;14.10;92.10;;;;;;4982090;28;20442;-85
2022/04/28 09:05:39;;;;;;;8.57;3.25;;;14.20;92.10;;;;;;4959502;28;20492;-85
2022/04/28 09:18:46;;;;;;;12.05;3.47;;;14.50;90.20;;;;;;4972974;29;20043;-86
2022/04/28 09:21:12;;;;;;;9.63;3.10;;;14.50;90.10;;;;;;4998511;28;20052;-85
2022/04/28 09:23:46;;;;;;;7.10;3.35;;;14.60;90.00;;;;;;5032587;28;20253;-85
2022/04/28 09:26:15;;;;;;;7.63;3.53;;;14.70;90.30;;;;;;5005547;28;20034;-84
2022/04/28 09:28:46;;;;;;;13.98;3.40;;;14.80;90.40;;;;;;5016291;28;20470;-85
2022/04/28 09:48:45;;;;;;;10.45;3.40;;;15.40;88.50;;;;;;4974583;28;20031;-87
2022/04/28 10:32:58;;;;;;;7.35;3.55;;;16.50;83.10;;;;;;4917068;29;20051;-86
2022/04/28 10:36:16;;;;;;;7.32;3.05;;;16.60;81.50;;;;;;4900410;29;20392;-86
2022/04/28 10:39:28;;;;;;;8.25;3.05;;;16.70;80.70;;;;;;4933370;28;20110;-87
2022/04/28 10:41:53;;;;;;;7.05;2.90;;;16.70;80.00;;;;;;4959110;28;20082;-85
2022/04/28 10:45:17;;;;;;;7.30;2.80;;;16.80;79.80;;;;;;4958631;28;20403;-85
2022/04/28 11:17:09;;;;;;;9.38;3.90;;;17.50;74.80;;;;;;4995650;28;20030;-84
2022/04/28 11:23:05;;;;;;;11.77;3.88;;;17.60;74.80;;;;;;4995185;28;20462;-84
2022/04/28 11:25:30;;;;;;;11.55;3.72;;;17.60;74.40;;;;;;4941756;28;20113;-82
2022/04/28 11:27:57;;;;;;;9.77;4.18;;;17.70;73.60;;;;;;4961018;28;20034;-82
2022/04/28 11:30:26;;;;;;;9.95;3.70;;;17.70;72.90;;;;;;4961631;28;20030;-83
2022/04/28 11:33:00;;;;;;;7.05;3.38;;;17.80;72.70;;;;;;4945201;28;20043;-82
2022/04/28 11:35:35;;;;;;;8.90;3.65;;;17.80;72.70;;;;;;4961588;28;20027;-83
2022/04/28 11:38:01;;;;;;;8.88;3.90;;;17.90;72.40;;;;;;4961739;28;20453;-82
2022/04/28 11:40:30;;;;;;;9.50;3.85;;;18.00;72.00;;;;;;4961721;28;20033;-82
2022/04/28 11:43:00;;;;;;;9.15;3.80;;;18.00;71.10;;;;;;4961336;28;20035;-82
2022/04/28 11:45:31;;;;;;;7.88;3.60;;;18.00;71.00;;;;;;4961321;28;20427;-82
2022/04/28 11:48:03;;;;;;;7.25;3.63;;;18.10;71.20;;;;;;4961500;28;20030;-82
2022/04/28 11:50:32;;;;;;;8.02;3.63;;;18.20;71.60;;;;;;4978557;28;20062;-82
2022/04/28 11:53:06;;;;;;;10.30;4.03;;;18.20;71.40;;;;;;4961297;28;20065;-82
2022/04/28 11:55:37;;;;;;;10.90;3.55;;;18.30;70.60;;;;;;4962085;28;20023;-84
2022/04/28 11:58:07;;;;;;;7.68;3.38;;;18.40;69.70;;;;;;4961921;28;20019;-83
2022/04/28 12:01:02;;;;;;;10.93;3.60;;;18.40;69.50;;;;;;4962434;28;20023;-84
2022/04/28 12:03:36;;;;;;;7.90;3.65;;;18.50;69.50;;;;;;4962024;28;20452;-84
2022/04/28 12:06:43;;;;;;;10.30;4.05;;;18.50;69.20;;;;;;4961744;28;20486;-84
2022/04/28 12:39:04;;;;;;;8.40;3.63;;;19.30;66.80;;;;;;4920245;29;20081;-83
2022/04/28 12:42:08;;;;;;;6.70;3.38;;;19.30;66.50;;;;;;4945780;28;20501;-84
2022/04/28 13:00:18;;;;;;;7.18;3.60;;;19.80;65.70;;;;;;5001184;28;20046;-83
2022/04/28 13:06:39;;;;;;;9.35;3.20;;;20.00;64.30;;;;;;4995565;28;20022;-83
2022/04/28 13:09:07;;;;;;;;;;;20.00;64.40;;;;;;4998227;28;20046;-83
2022/04/28 13:11:45;;;;;;;5.70;2.83;;;20.10;64.50;;;;;;4979944;28;19906;-84
2022/04/28 13:14:19;;;;;;;8.70;3.65;;;20.10;63.80;;;;;;4981838;28;20043;-82
2022/04/28 13:16:50;;;;;;;7.38;3.08;;;20.20;63.30;;;;;;4982403;28;20027;-84
2022/04/28 13:19:22;;;;;;;9.70;3.58;;;20.20;63.20;;;;;;4999296;28;20030;-83
2022/04/28 13:28:36;;;;;;;9.15;3.30;;;20.50;62.10;;;;;;4992699;28;20030;-84
2022/04/28 13:35:21;;;;;;;6.07;3.00;;;20.60;61.90;;;;;;4984050;28;20041;-84
2022/04/28 13:41:35;;;;;;;7.40;3.08;;;20.70;60.40;;;;;;4982821;28;20121;-83
2022/04/28 13:51:23;;;;;;;8.23;3.30;;;20.90;60.90;;;;;;4944615;29;19978;-83
2022/04/28 13:54:31;;;;;;;8.57;3.40;;;20.90;60.60;;;;;;4946485;29;20395;-83
2022/04/28 13:56:57;;;;;;;8.73;4.32;;;21.00;60.40;;;;;;4936828;29;20071;-84
2022/04/28 13:59:38;;;;;;;;;;;;;;;;;;;;;
2022/04/28 14:02:07;;;;;;;8.93;3.88;;;21.10;59.60;;;;;;4937559;29;20141;-84
2022/04/28 14:04:33;;;;;;;8.82;3.63;;;21.10;60.10;;;;;;4938044;29;20036;-83
2022/04/28 14:07:55;;;;;;;9.55;3.97;;;21.20;60.20;;;;;;4938599;29;20039;-84
2022/04/28 14:24:11;;;;;;;8.45;4.15;;;21.40;59.30;;;;;;4960156;29;20042;-85
2022/04/28 14:29:59;;;;;;;8.82;4.20;;;21.40;58.80;;;;;;4958562;29;20034;-81
2022/04/28 14:32:24;;;;;;;9.88;3.83;;;21.40;58.50;;;;;;4955866;29;20035;-79
2022/04/28 14:34:50;;;;;;;8.52;4.38;;;21.40;58.30;;;;;;4938918;29;20019;-79
2022/04/28 14:37:16;;;;;;;7.50;3.80;;;21.40;58.00;;;;;;4955504;29;20106;-80
2022/04/28 14:39:41;;;;;;;8.52;4.03;;;21.40;57.90;;;;;;4955605;29;20122;-80
2022/04/28 14:42:07;;;;;;;12.25;4.72;;;21.40;58.40;;;;;;4956783;29;20038;-79
2022/04/28 14:44:34;;;;;;;8.23;4.50;;;21.40;57.90;;;;;;4938874;29;20471;-79
2022/04/28 14:47:00;;;;;;;10.07;4.00;;;21.40;57.60;;;;;;4955104;29;20044;-78
2022/04/28 14:52:20;;;;;;;7.90;4.00;;;21.40;57.80;;;;;;4954890;29;20042;-79
2022/04/28 14:55:00;;;;;;;9.05;4.68;;;21.40;57.50;;;;;;4956492;28;20040;-79
2022/04/28 14:57:28;;;;;;;8.90;4.30;;;21.40;57.80;;;;;;4958192;28;20114;-80
2022/04/28 14:59:55;;;;;;;8.52;4.00;;;21.50;57.90;;;;;;4974056;28;20274;-79
2022/04/28 15:02:21;;;;;;;7.18;4.15;;;21.50;57.70;;;;;;4957155;28;20582;-79
2022/04/28 15:04:47;;;;;;;9.98;4.28;;;21.50;57.60;;;;;;4973843;28;20027;-79
2022/04/28 15:07:14;;;;;;;7.10;4.00;;;21.50;57.30;;;;;;4957788;28;20065;-79
2022/04/28 15:09:41;;;;;;;9.05;4.10;;;21.40;57.00;;;;;;4973719;28;20034;-79
2022/04/28 15:12:08;;;;;;;7.65;4.10;;;21.40;57.30;;;;;;4975158;28;20548;-79
2022/04/28 15:14:35;;;;;;;8.95;3.97;;;21.40;57.70;;;;;;4975013;28;20023;-78
2022/04/28 15:17:01;;;;;;;7.63;3.85;;;21.50;58.20;;;;;;4957745;28;20027;-79
2022/04/28 15:19:27;;;;;;;10.07;4.60;;;21.50;58.40;;;;;;4957761;28;20035;-80
2022/04/28 15:21:52;;;;;;;8.30;4.20;;;21.50;58.60;;;;;;4957932;28;20486;-80
2022/04/28 15:24:18;;;;;;;7.78;4.55;;;21.50;57.70;;;;;;4975440;28;20391;-80
2022/04/28 15:26:45;;;;;;;9.48;3.97;;;21.50;57.30;;;;;;4957488;28;20402;-79
2022/04/28 15:29:12;;;;;;;9.95;4.45;;;21.50;56.90;;;;;;4975269;28;20026;-82
2022/04/28 15:31:39;;;;;;;8.02;3.75;;;21.50;56.70;;;;;;4941965;28;20027;-82
2022/04/28 15:34:06;;;;;;;10.57;4.55;;;21.50;56.70;;;;;;4958034;28;20043;-82
2022/04/28 15:36:32;;;;;;;8.20;3.80;;;21.50;56.60;;;;;;4958444;28;20042;-83
2022/04/28 15:38:58;;;;;;;10.68;4.22;;;21.50;56.10;;;;;;4958221;28;20467;-83
2022/04/28 15:41:32;;;;;;;9.02;3.67;;;21.50;56.20;;;;;;4958411;28;20187;-84
2022/04/28 15:44:06;;;;;;;8.23;5.50;;;21.40;56.20;;;;;;4959200;28;20059;-83
2022/04/28 15:53:49;;;;;;;8.80;4.30;;;21.50;56.90;;;;;;4976386;28;20171;-86
2022/04/28 15:56:15;;;;;;;7.00;3.72;;;21.50;57.40;;;;;;4957797;28;20066;-86
2022/04/28 15:58:53;;;;;;;9.82;3.80;;;21.50;57.60;;;;;;4935112;29;20075;-87
2022/04/28 16:07:52;;;;;;;12.50;4.68;;;21.50;56.90;;;;;;4956001;28;20387;-85
2022/04/28 16:17:34;;;;;;;;;;;;;;;;;;;;;
2022/04/28 16:24:08;;;;;;;8.43;3.28;;;21.20;56.60;;;;;;4901589;29;20028;-87
2022/04/28 16:30:35;;;;;;;6.50;2.90;;;21.10;56.80;;;;;;4915937;29;20039;-88
2022/04/28 16:33:03;;;;;;;9.02;3.05;;;21.00;57.00;;;;;;4904313;29;20051;-86
2022/04/28 16:38:59;;;;;;;7.93;2.97;;;21.10;56.90;;;;;;4919538;29;20139;-86
2022/04/28 17:01:40;;;;;;;8.77;2.83;;;21.10;56.00;;;;;;4877484;29;20035;-86
2022/04/28 17:04:25;;;;;;;;;;;;;;;;;;;;;
2022/04/28 17:07:31;;;;;;;7.80;2.70;;;21.10;56.40;;;;;;4887454;29;20045;-85
2022/04/28 17:10:24;;;;;;;7.22;2.60;;;21.00;56.60;;;;;;4850572;29;20040;-86
2022/04/28 17:13:30;;;;;;;;;;;;;;;;;;;;;
2022/04/28 17:22:47;;;;;;;9.13;2.50;;;20.70;56.00;;;;;;4958514;29;20063;-85
2022/04/28 17:32:09;;;;;;;;;;;;;;;;;;;;;
2022/04/28 17:35:12;;;;;;;;;;;;;;;;;;;;;
2022/04/28 17:38:30;;;;;;;;;;;;;;;;;;;;;
2022/04/28 17:41:33;;;;;;;6.85;2.80;;;20.20;57.50;;;;;;4960700;29;20110;-85
2022/04/28 17:44:09;;;;;;;7.93;2.80;;;20.20;57.90;;;;;;4941725;29;20051;-85
2022/04/28 17:47:42;;;;;;;7.18;2.80;;;20.10;57.30;;;;;;4927167;29;20028;-85
2022/04/28 18:11:23;;;;;;;;;;;;;;;;;;;;;
2022/04/28 18:21:10;;;;;;;;;;;;;;;;;;;;;
2022/04/28 18:34:41;;;;;;;;;;;;;;;;;;;;;
2022/04/28 19:18:29;;;;;;;7.60;3.03;;;18.50;64.30;;;;;;4916474;29;20039;-85
2022/04/28 19:29:10;;;;;;;10.43;2.80;;;18.30;65.10;;;;;;4956473;29;20031;-86
2022/04/28 19:34:50;;;;;;;8.15;2.83;;;18.20;65.50;;;;;;4955942;29;19970;-85
2022/04/28 19:37:51;;;;;;;8.98;3.78;;;18.10;65.30;;;;;;4934925;29;20127;-86
2022/04/28 19:43:51;;;;;;;9.10;3.70;;;18.00;65.70;;;;;;4897887;29;20083;-86
2022/04/28 19:47:26;;;;;;;;;;;;;;;;;;;;;
2022/04/28 20:14:41;;;;;;;13.20;3.08;;;17.40;67.50;;;;;;4829982;29;20073;-85
2022/04/28 20:21:06;;;;;;;7.05;2.90;;;17.30;68.10;;;;;;4943331;29;19982;-85
2022/04/28 20:30:03;;;;;;;11.10;3.45;;;17.10;68.10;;;;;;4960369;29;20035;-85
2022/04/28 20:38:58;;;;;;;11.70;3.10;;;17.00;68.60;;;;;;4940661;29;20047;-85
2022/04/28 20:47:53;;;;;;;6.18;2.38;;;16.80;69.10;;;;;;4939875;29;20050;-84
2022/04/28 20:50:36;;;;;;;10.68;2.95;;;16.70;69.10;;;;;;4959628;28;20509;-86
2022/04/28 20:53:35;;;;;;;9.52;2.90;;;16.70;69.20;;;;;;5000941;28;20162;-86
2022/04/28 20:56:04;;;;;;;8.48;3.00;;;16.60;69.40;;;;;;4976720;28;20030;-86
2022/04/28 21:02:21;;;;;;;6.75;2.72;;;16.50;69.80;;;;;;4997308;28;20399;-87
2022/04/28 21:05:16;;;;;;;6.93;3.00;;;16.50;69.80;;;;;;4962194;28;20046;-86
2022/04/28 21:07:56;;;;;;;;;;;;;;;;;;;;;
2022/04/28 21:10:37;;;;;;;7.43;2.33;;;16.40;70.00;;;;;;4980174;28;20103;-88
2022/04/28 21:13:16;;;;;;;;;;;;;;;;;;;;;
2022/04/28 21:16:02;;;;;;;;;;;;;;;;;;;;;
2022/04/28 21:18:33;;;;;;;8.57;2.88;;;16.20;70.30;;;;;;4963173;28;20391;-86
2022/04/28 21:21:15;;;;;;;8.70;3.00;;;16.20;70.50;;;;;;4961702;28;20030;-88
2022/04/28 21:23:56;;;;;;;;;;;;;;;;;;;;;
2022/04/28 21:26:42;;;;;;;14.30;4.30;;;16.00;70.90;;;;;;4978551;28;20402;-87
2022/04/28 21:29:59;;;;;;;8.77;2.95;;;16.00;71.10;;;;;;4961516;28;20027;-86
2022/04/28 21:32:56;;;;;;;;;;;;;;;;;;;;;
2022/04/28 21:35:27;;;;;;;9.60;3.25;;;15.90;71.30;;;;;;4979618;28;20451;-87
2022/04/28 21:38:43;;;;;;;;;;;;;;;;;;;;;
2022/04/28 21:44:21;;;;;;;9.82;2.72;;;15.80;71.40;;;;;;4955940;29;20545;-86
2022/04/28 21:47:09;;;;;;;;;;;;;;;;;;;;;
2022/04/28 21:49:47;;;;;;;9.43;3.22;;;15.60;71.80;;;;;;4956046;29;20415;-87
2022/04/28 21:52:24;;;;;;;9.27;3.40;;;15.60;71.80;;;;;;4955406;29;20027;-87
2022/04/28 21:55:20;;;;;;;10.90;3.20;;;15.50;71.90;;;;;;4955613;29;20089;-87
2022/04/28 22:01:19;;;;;;;7.90;3.00;;;15.30;71.90;;;;;;4957310;28;20123;-87
2022/04/28 22:13:26;;;;;;;11.85;3.22;;;15.20;72.50;;;;;;4947741;28;20049;-87
2022/04/28 22:15:56;;;;;;;11.10;3.08;;;15.10;72.70;;;;;;4945644;28;20027;-86
2022/04/28 22:18:28;;;;;;;7.05;2.95;;;15.00;72.70;;;;;;4975155;28;20045;-84
2022/04/28 22:21:01;;;;;;;8.48;3.22;;;15.00;72.80;;;;;;4959102;28;20105;-85
2022/04/28 22:23:54;;;;;;;11.18;2.65;;;15.00;72.90;;;;;;4959064;28;20034;-85
2022/04/28 22:26:49;;;;;;;6.43;2.50;;;14.90;73.00;;;;;;4975218;28;20117;-85
2022/04/28 22:30:08;;;;;;;6.10;2.92;;;14.90;72.90;;;;;;4974812;28;20039;-85
2022/04/28 22:35:37;;;;;;;9.02;2.50;;;14.70;73.30;;;;;;4964407;28;20505;-85
2022/04/28 22:38:22;;;;;;;;;;;;;;;;;;;;;
2022/04/28 22:41:24;;;;;;;;;;;;;;;;;;;;;
2022/04/28 22:44:21;;;;;;;7.97;2.65;;;14.60;73.70;;;;;;4976354;28;20033;-86
2022/04/28 22:47:00;;;;;;;8.82;2.67;;;14.50;73.50;;;;;;4959038;28;20391;-86
2022/04/28 22:52:28;;;;;;;8.27;2.80;;;14.40;73.70;;;;;;4975116;28;20106;-86
2022/04/28 22:55:41;;;;;;;9.95;3.03;;;14.40;73.90;;;;;;4958671;28;20035;-86
2022/04/28 22:58:27;;;;;;;;;;;;;;;;;;;;;
2022/04/28 23:01:08;;;;;;;8.00;2.20;;;14.30;74.20;;;;;;4975135;28;20462;-86
2022/04/28 23:04:27;;;;;;;;;;;;;;;;;;;;;
2022/04/28 23:07:34;;;;;;;;;;;;;;;;;;;;;
2022/04/28 23:10:46;;;;;;;7.07;2.65;;;14.20;74.60;;;;;;4975574;28;20041;-85
2022/04/28 23:13:22;;;;;;;7.75;2.67;;;14.10;74.60;;;;;;4975234;28;20027;-86
2022/04/28 23:16:39;;;;;;;12.13;3.40;;;14.00;74.60;;;;;;4958934;28;20049;-87
2022/04/28 23:22:35;;;;;;;6.15;2.40;;;14.00;75.00;;;;;;4965166;28;20086;-86
2022/04/28 23:31:07;;;;;;;8.20;2.83;;;13.80;75.30;;;;;;4981105;28;20031;-86
2022/04/28 23:40:06;;;;;;;;;;;;;;;;;;;;;
2022/04/28 23:42:59;;;;;;;;;;;;;;;;;;;;;
2022/04/28 23:45:56;;;;;;;7.78;2.97;;;13.60;76.00;;;;;;4975156;28;20087;-94
2022/04/28 23:48:47;;;;;;;12.60;3.08;;;13.60;76.00;;;;;;4979935;28;20041;-86
2022/04/28 23:51:50;;;;;;;7.82;3.20;;;13.50;76.30;;;;;;4972630;28;20034;-86
2022/04/28 23:54:58;;;;;;;10.75;3.10;;;13.50;76.80;;;;;;4976742;28;20045;-86
2022/04/28 23:57:53;;;;;;;8.23;3.10;;;13.40;76.20;;;;;;4977507;28;20114;-86
